createdAt,value
2022-11-28T00:01:31.589Z,10.35
2022-11-28T00:03:58.421Z,11.30
2022-11-28T00:06:26.554Z,12.40
2022-11-28T00:08:53.860Z,12.38
2022-11-28T00:11:20.928Z,11.68
2022-11-28T00:13:47.514Z,12.90
2022-11-28T00:16:21.242Z,11.35
2022-11-28T00:18:54.922Z,8.50
2022-11-28T00:21:22.338Z,12.43
2022-11-28T00:23:49.579Z,11.80
2022-11-28T00:26:25.444Z,14.48
2022-11-28T00:28:52.636Z,12.40
2022-11-28T00:31:29.052Z,9.23
2022-11-28T00:33:56.116Z,12.20
2022-11-28T00:36:23.719Z,12.98
2022-11-28T00:38:51.324Z,14.60
2022-11-28T00:41:24.392Z,12.45
2022-11-28T00:43:52.037Z,12.00
2022-11-28T00:46:21.151Z,12.00
2022-11-28T00:48:48.320Z,12.38
2022-11-28T00:51:25.725Z,14.38
2022-11-28T00:53:55.497Z,10.07
2022-11-28T00:56:26.228Z,10.20
2022-11-28T00:58:53.229Z,10.30
2022-11-28T01:01:34.400Z,10.50
2022-11-28T01:04:05.365Z,14.30
2022-11-28T01:06:50.741Z,13.25
2022-11-28T01:09:21.299Z,11.00
2022-11-28T01:11:50.158Z,12.50
2022-11-28T01:14:20.573Z,11.80
2022-11-28T01:16:47.182Z,12.40
2022-11-28T01:19:14.618Z,12.13
2022-11-28T01:21:41.986Z,11.50
2022-11-28T01:24:11.539Z,14.48
2022-11-28T01:26:40.069Z,11.18
2022-11-28T01:29:08.318Z,10.60
2022-11-28T01:31:35.448Z,8.13
2022-11-28T01:34:02.190Z,10.77
2022-11-28T01:36:29.094Z,12.02
2022-11-28T01:38:55.790Z,9.90
2022-11-28T01:41:26.218Z,10.45
2022-11-28T01:44:13.025Z,9.35
2022-11-28T01:46:40.238Z,8.80
2022-11-28T01:49:14.193Z,9.68
2022-11-28T01:51:46.645Z,12.25
2022-11-28T01:54:15.961Z,9.20
2022-11-28T01:56:51.213Z,9.20
2022-11-28T01:59:24.205Z,8.30
2022-11-28T02:01:50.965Z,11.30
2022-11-28T02:04:17.580Z,10.23
2022-11-28T02:06:44.661Z,12.43
2022-11-28T02:09:16.276Z,9.70
2022-11-28T02:12:11.632Z,9.57
2022-11-28T02:14:59.917Z,11.13
2022-11-28T02:17:56.668Z,8.95
2022-11-28T02:20:47.909Z,9.50
2022-11-28T02:23:39.337Z,13.60
2022-11-28T02:26:44.430Z,12.65
2022-11-28T02:29:55.785Z,10.30
2022-11-28T02:33:10.691Z,15.23
2022-11-28T02:36:08.973Z,10.02
2022-11-28T02:39:13.374Z,10.63
2022-11-28T02:41:57.570Z,10.60
2022-11-28T02:45:11.063Z,11.73
2022-11-28T02:47:44.237Z,8.73
2022-11-28T02:50:27.697Z,11.38
2022-11-28T02:53:08.801Z,10.05
2022-11-28T02:55:43.441Z,9.77
2022-11-28T02:58:11.817Z,10.27
2022-11-28T03:00:43.528Z,12.50
2022-11-28T03:03:47.599Z,11.10
2022-11-28T03:06:32.563Z,11.23
2022-11-28T03:09:30.767Z,11.85
2022-11-28T03:12:36.984Z,13.82
2022-11-28T03:15:07.911Z,11.75
2022-11-28T03:18:07.992Z,11.93
2022-11-28T03:20:48.053Z,13.02
2022-11-28T03:23:26.803Z,12.38
2022-11-28T03:26:07.430Z,12.48
2022-11-28T03:29:09.206Z,12.07
2022-11-28T03:32:03.890Z,12.38
2022-11-28T03:34:38.834Z,13.05
2022-11-28T03:37:12.943Z,9.85
2022-11-28T03:39:46.618Z,12.18
2022-11-28T03:42:19.822Z,14.70
2022-11-28T03:45:07.009Z,12.32
2022-11-28T03:47:38.848Z,13.10
2022-11-28T03:50:12.793Z,12.10
2022-11-28T03:52:53.184Z,12.13
2022-11-28T03:55:31.034Z,12.60
2022-11-28T03:58:23.175Z,12.90
2022-11-28T04:01:03.686Z,11.93
2022-11-28T04:03:42.699Z,10.73
2022-11-28T04:06:28.261Z,20.02
2022-11-28T04:09:14.378Z,14.80
2022-11-28T04:11:52.151Z,12.90
2022-11-28T04:14:25.075Z,11.75
2022-11-28T04:17:09.592Z,13.48
2022-11-28T04:19:48.478Z,13.65
2022-11-28T04:22:44.345Z,13.32
2022-11-28T04:25:15.953Z,12.77
2022-11-28T04:27:54.718Z,12.65
2022-11-28T04:30:22.013Z,13.38
2022-11-28T04:32:52.559Z,14.13
2022-11-28T04:35:35.992Z,16.75
2022-11-28T04:38:05.013Z,14.65
2022-11-28T04:40:41.169Z,16.92
2022-11-28T04:43:22.158Z,19.80
2022-11-28T04:46:00.441Z,14.00
2022-11-28T04:48:31.277Z,16.27
2022-11-28T04:51:36.482Z,14.40
2022-11-28T04:54:29.278Z,16.77
2022-11-28T04:57:04.170Z,14.80
2022-11-28T04:59:32.112Z,16.40
2022-11-28T05:02:03.229Z,13.82
2022-11-28T05:04:30.277Z,14.07
2022-11-28T05:07:05.943Z,16.15
2022-11-28T05:09:32.993Z,14.85
2022-11-28T05:11:59.615Z,13.85
2022-11-28T05:14:26.681Z,20.33
2022-11-28T05:16:53.288Z,16.23
2022-11-28T05:19:19.932Z,17.13
2022-11-28T05:21:46.602Z,15.18
2022-11-28T05:24:13.401Z,17.65
2022-11-28T05:26:40.058Z,17.73
2022-11-28T05:29:07.163Z,14.38
2022-11-28T05:31:33.801Z,16.30
2022-11-28T05:34:00.547Z,17.15
2022-11-28T05:36:27.131Z,14.80
2022-11-28T05:38:53.785Z,16.50
2022-11-28T05:41:24.542Z,16.40
2022-11-28T05:43:51.970Z,16.40
2022-11-28T05:46:19.665Z,17.15
2022-11-28T05:48:46.649Z,17.90
2022-11-28T05:51:13.618Z,24.13
2022-11-28T05:53:40.247Z,18.88
2022-11-28T05:56:13.671Z,16.13
2022-11-28T05:58:40.467Z,17.30
2022-11-28T06:01:15.614Z,16.63
2022-11-28T06:03:43.495Z,15.02
2022-11-28T06:06:20.762Z,15.15
2022-11-28T06:08:49.779Z,17.52
2022-11-28T06:11:16.853Z,19.38
2022-11-28T06:13:45.582Z,19.50
2022-11-28T06:16:18.936Z,17.42
2022-11-28T06:18:46.252Z,16.77
2022-11-28T06:21:14.943Z,16.70
2022-11-28T06:23:42.001Z,15.75
2022-11-28T06:26:15.751Z,15.48
2022-11-28T06:28:48.543Z,19.58
2022-11-28T06:31:22.546Z,19.75
2022-11-28T06:33:49.619Z,19.23
2022-11-28T06:36:18.398Z,17.58
2022-11-28T06:38:46.725Z,18.02
2022-11-28T06:41:17.420Z,17.48
2022-11-28T06:43:44.129Z,17.45
2022-11-28T06:46:18.759Z,17.92
2022-11-28T06:48:47.052Z,17.42
2022-11-28T06:51:13.963Z,16.95
2022-11-28T06:53:40.756Z,19.90
2022-11-28T06:56:16.550Z,18.48
2022-11-28T06:58:44.204Z,20.05
2022-11-28T07:01:17.317Z,16.98
2022-11-28T07:03:44.590Z,16.35
2022-11-28T07:06:13.713Z,17.08
2022-11-28T07:08:48.364Z,17.33
2022-11-28T07:11:21.656Z,19.52
2022-11-28T07:13:49.965Z,18.65
2022-11-28T07:16:28.684Z,19.25
2022-11-28T07:18:57.485Z,18.70
2022-11-28T07:21:24.606Z,19.83
2022-11-28T07:23:51.904Z,19.77
2022-11-28T07:26:22.883Z,19.33
2022-11-28T07:28:50.985Z,20.90
2022-11-28T07:31:28.686Z,19.58
2022-11-28T07:33:55.309Z,21.58
2022-11-28T07:36:28.401Z,19.02
2022-11-28T07:39:08.469Z,19.63
2022-11-28T07:41:35.381Z,25.90
2022-11-28T07:44:06.776Z,20.02
2022-11-28T07:46:34.271Z,16.92
2022-11-28T07:49:01.644Z,18.63
2022-11-28T07:51:32.810Z,20.88
2022-11-28T07:54:01.529Z,21.13
2022-11-28T07:56:57.059Z,20.70
2022-11-28T07:59:19.300Z,21.67
2022-11-28T08:01:45.983Z,23.63
2022-11-28T08:04:12.628Z,16.30
2022-11-28T08:06:42.253Z,16.23
2022-11-28T08:09:09.112Z,18.42
2022-11-28T08:11:35.995Z,27.17
2022-11-28T08:14:03.507Z,25.65
2022-11-28T08:16:30.932Z,17.35
2022-11-28T08:19:00.423Z,18.85
2022-11-28T08:21:33.541Z,18.83
2022-11-28T08:24:02.085Z,20.23
2022-11-28T08:26:31.212Z,21.00
2022-11-28T08:28:59.852Z,21.67
2022-11-28T08:31:38.606Z,20.13
2022-11-28T08:34:08.502Z,17.23
2022-11-28T08:36:35.265Z,18.08
2022-11-28T08:39:22.952Z,17.77
2022-11-28T08:41:50.385Z,21.90
2022-11-28T08:44:17.085Z,22.60
2022-11-28T08:46:44.058Z,21.00
2022-11-28T08:49:10.923Z,19.30
2022-11-28T08:51:37.619Z,21.08
2022-11-28T08:54:04.349Z,19.42
2022-11-28T08:56:30.986Z,22.40
2022-11-28T08:58:57.674Z,18.60
2022-11-28T09:01:26.593Z,18.25
2022-11-28T09:03:55.023Z,19.67
2022-11-28T09:06:23.481Z,20.23
2022-11-28T09:08:53.426Z,19.27
2022-11-28T09:11:22.865Z,20.25
2022-11-28T09:13:50.454Z,21.38
2022-11-28T09:16:18.075Z,20.02
2022-11-28T09:18:44.847Z,18.65
2022-11-28T09:21:14.863Z,18.48
2022-11-28T09:23:43.997Z,19.55
2022-11-28T09:26:18.491Z,23.67
2022-11-28T09:28:45.935Z,19.65
2022-11-28T09:31:14.955Z,22.42
2022-11-28T09:33:42.598Z,23.40
2022-11-28T09:36:19.004Z,23.95
2022-11-28T09:38:46.656Z,18.70
2022-11-28T09:41:28.519Z,19.33
2022-11-28T09:44:20.087Z,19.80
2022-11-28T09:46:50.390Z,19.20
2022-11-28T09:49:38.540Z,18.70
2022-11-28T09:52:26.832Z,20.60
2022-11-28T09:55:11.194Z,21.00
2022-11-28T09:57:45.498Z,18.45
2022-11-28T10:00:24.562Z,20.15
2022-11-28T10:03:25.958Z,19.00
2022-11-28T10:06:20.693Z,23.40
2022-11-28T10:09:15.297Z,18.95
2022-11-28T10:12:25.757Z,18.33
2022-11-28T10:15:09.346Z,18.40
2022-11-28T10:17:54.029Z,18.60
2022-11-28T10:20:28.976Z,21.02
2022-11-28T10:23:16.551Z,22.00
2022-11-28T10:25:48.710Z,17.40
2022-11-28T10:28:30.386Z,19.27
2022-11-28T10:31:20.619Z,15.18
2022-11-28T10:33:53.838Z,16.35
2022-11-28T10:36:52.014Z,18.33
2022-11-28T10:39:18.857Z,21.65
2022-11-28T10:42:35.819Z,17.60
2022-11-28T10:45:42.889Z,19.42
2022-11-28T10:48:39.715Z,19.67
2022-11-28T10:51:43.048Z,18.23
2022-11-28T10:54:25.822Z,18.52
2022-11-28T10:57:11.060Z,15.18
2022-11-28T10:59:58.366Z,14.05
2022-11-28T11:02:44.854Z,14.30
2022-11-28T11:05:18.973Z,18.00
2022-11-28T11:07:56.056Z,17.42
2022-11-28T11:10:26.056Z,11.95
2022-11-28T11:12:53.353Z,15.90
2022-11-28T11:15:24.698Z,14.50
2022-11-28T11:17:52.002Z,14.40
2022-11-28T11:20:38.405Z,13.95
2022-11-28T11:23:17.588Z,14.50
2022-11-28T11:25:58.137Z,13.98
2022-11-28T11:28:46.213Z,14.20
2022-11-28T11:31:42.874Z,13.30
2022-11-28T11:34:18.434Z,18.75
2022-11-28T11:36:45.502Z,12.90
2022-11-28T11:39:14.861Z,13.32
2022-11-28T11:41:45.250Z,12.85
2022-11-28T11:44:14.825Z,12.77
2022-11-28T11:47:03.430Z,12.88
2022-11-28T11:49:43.470Z,12.13
2022-11-28T11:52:13.018Z,12.35
2022-11-28T11:54:56.747Z,13.15
2022-11-28T11:57:39.706Z,13.23
2022-11-28T12:00:20.894Z,11.73
2022-11-28T12:03:00.200Z,13.15
2022-11-28T12:06:12.170Z,12.20
2022-11-28T12:08:38.094Z,11.98
2022-11-28T12:11:17.772Z,12.65
2022-11-28T12:13:44.992Z,11.02
2022-11-28T12:16:45.374Z,13.77
2022-11-28T12:19:38.388Z,12.52
2022-11-28T12:22:32.214Z,12.32
2022-11-28T12:25:34.309Z,13.32
2022-11-28T12:28:54.858Z,17.05
2022-11-28T12:31:42.781Z,16.20
2022-11-28T12:34:53.315Z,14.88
2022-11-28T12:38:10.701Z,15.02
2022-11-28T12:41:26.249Z,22.13
2022-11-28T12:44:30.951Z,22.88
2022-11-28T12:47:09.267Z,21.35
2022-11-28T12:50:20.720Z,25.00
2022-11-28T12:52:56.049Z,20.65
2022-11-28T12:55:47.859Z,18.38
2022-11-28T12:58:22.626Z,20.23
2022-11-28T13:01:40.869Z,17.83
2022-11-28T13:04:49.525Z,17.10
2022-11-28T13:07:38.983Z,18.80
2022-11-28T13:10:42.299Z,17.48
2022-11-28T13:13:31.438Z,17.17
2022-11-28T13:16:15.558Z,19.23
2022-11-28T13:19:22.793Z,17.67
2022-11-28T13:22:01.323Z,18.05
2022-11-28T13:25:10.862Z,18.80
2022-11-28T13:28:33.848Z,18.15
2022-11-28T13:31:33.135Z,17.58
2022-11-28T13:34:00.363Z,14.98
2022-11-28T13:39:51.825Z,17.90
2022-11-28T13:45:49.951Z,18.23
2022-11-28T13:49:06.214Z,18.08
2022-11-28T13:51:32.529Z,17.45
2022-11-28T13:54:31.815Z,18.88
2022-11-28T13:57:28.348Z,16.33
2022-11-28T14:00:22.526Z,15.98
2022-11-28T14:02:59.690Z,17.13
2022-11-28T14:05:37.106Z,16.05
2022-11-28T14:08:05.751Z,15.70
2022-11-28T14:11:07.256Z,16.80
2022-11-28T14:13:33.835Z,18.25
2022-11-28T14:16:22.559Z,18.83
2022-11-28T14:19:33.715Z,23.02
2022-11-28T14:22:20.116Z,22.35
2022-11-28T14:25:01.892Z,17.63
2022-11-28T14:27:35.783Z,17.98
2022-11-28T14:30:03.429Z,21.25
2022-11-28T14:32:36.446Z,16.05
2022-11-28T14:35:07.106Z,14.55
2022-11-28T14:37:34.649Z,17.35
2022-11-28T14:40:01.634Z,14.68
2022-11-28T14:45:45.065Z,18.13
2022-11-28T14:48:18.854Z,17.30
2022-11-28T14:50:47.630Z,18.20
2022-11-28T14:53:45.475Z,14.73
2022-11-28T14:56:15.240Z,15.05
2022-11-28T14:58:50.348Z,16.00
2022-11-28T15:01:29.013Z,25.00
2022-11-28T15:04:22.519Z,16.80
2022-11-28T15:06:50.222Z,16.20
2022-11-28T15:09:42.798Z,21.08
2022-11-28T15:12:26.568Z,20.10
2022-11-28T15:14:57.639Z,17.63
2022-11-28T15:17:31.367Z,17.35
2022-11-28T15:20:03.331Z,20.42
2022-11-28T15:22:39.499Z,16.10
2022-11-28T15:25:35.439Z,16.08
2022-11-28T15:28:17.756Z,16.25
2022-11-28T15:30:50.434Z,16.88
2022-11-28T15:33:17.366Z,15.30
2022-11-28T15:36:01.139Z,17.85
2022-11-28T15:38:30.461Z,17.83
2022-11-28T15:40:58.120Z,24.45
2022-11-28T15:43:25.534Z,20.45
2022-11-28T15:45:58.425Z,22.05
2022-11-28T15:48:40.397Z,21.98
2022-11-28T15:51:08.057Z,17.55
2022-11-28T15:53:42.048Z,20.70
2022-11-28T15:56:15.485Z,19.65
2022-11-28T15:58:51.695Z,21.67
2022-11-28T16:01:27.403Z,17.52
2022-11-28T16:04:02.519Z,16.45
2022-11-28T16:06:34.306Z,33.13
2022-11-28T16:09:09.220Z,25.77
2022-11-28T16:11:36.357Z,21.70
2022-11-28T16:14:09.740Z,18.88
2022-11-28T16:16:38.700Z,23.02
2022-11-28T16:19:14.615Z,22.48
2022-11-28T16:21:51.163Z,21.45
2022-11-28T16:24:38.516Z,23.52
2022-11-28T16:27:06.024Z,24.65
2022-11-28T16:29:35.884Z,21.80
2022-11-28T16:32:31.491Z,25.38
2022-11-28T16:35:00.681Z,25.80
2022-11-28T16:37:29.890Z,25.63
2022-11-28T16:40:20.308Z,23.35
2022-11-28T16:42:56.771Z,25.27
2022-11-28T16:45:29.681Z,26.10
2022-11-28T16:48:13.463Z,29.50
2022-11-28T16:51:13.199Z,28.40
2022-11-28T16:53:59.315Z,24.80
2022-11-28T16:56:47.203Z,31.02
2022-11-28T16:59:18.913Z,29.90
2022-11-28T17:01:49.280Z,29.63
2022-11-28T17:04:27.940Z,26.63
2022-11-28T17:06:58.191Z,26.38
2022-11-28T17:09:24.998Z,30.20
2022-11-28T17:12:03.538Z,30.17
2022-11-28T17:14:30.440Z,25.00
2022-11-28T17:16:57.006Z,29.50
2022-11-28T17:19:23.645Z,27.90
2022-11-28T17:21:53.924Z,28.38
2022-11-28T17:24:34.413Z,26.77
2022-11-28T17:27:01.341Z,30.85
2022-11-28T17:29:29.081Z,30.55
2022-11-28T17:31:58.687Z,33.30
2022-11-28T17:34:29.115Z,29.05
2022-11-28T17:36:55.697Z,25.55
2022-11-28T17:39:22.673Z,32.67
2022-11-28T17:41:49.922Z,29.05
2022-11-28T17:44:25.335Z,25.35
2022-11-28T17:46:54.392Z,29.52
2022-11-28T17:49:22.351Z,28.63
2022-11-28T17:51:50.408Z,28.55
2022-11-28T17:54:19.925Z,30.75
2022-11-28T17:56:51.503Z,27.75
2022-11-28T17:59:21.557Z,28.30
2022-11-28T18:01:48.884Z,27.05
2022-11-28T18:04:16.259Z,68.13
2022-11-28T18:06:44.444Z,35.03
2022-11-28T18:09:13.050Z,32.58
2022-11-28T18:11:41.323Z,29.23
2022-11-28T18:14:08.724Z,30.58
2022-11-28T18:16:36.094Z,67.38
2022-11-28T18:19:04.097Z,27.42
2022-11-28T18:21:31.593Z,27.83
2022-11-28T18:23:58.840Z,23.60
2022-11-28T18:26:26.046Z,23.42
2022-11-28T18:28:53.627Z,23.77
2022-11-28T18:31:28.435Z,22.52
2022-11-28T18:34:00.427Z,28.40
2022-11-28T18:36:34.410Z,32.00
2022-11-28T18:39:08.809Z,32.55
2022-11-28T18:41:52.045Z,30.80
2022-11-28T18:44:19.357Z,34.40
2022-11-28T18:46:46.096Z,29.35
2022-11-28T18:49:14.972Z,25.30
2022-11-28T18:51:41.685Z,28.48
2022-11-28T18:54:09.451Z,21.65
2022-11-28T18:56:36.041Z,27.85
2022-11-28T18:59:02.956Z,26.30
2022-11-28T19:01:34.608Z,34.10
2022-11-28T19:04:05.978Z,39.97
2022-11-28T19:06:38.412Z,31.75
2022-11-28T19:09:09.281Z,27.75
2022-11-28T19:11:36.253Z,25.38
2022-11-28T19:14:03.452Z,31.77
2022-11-28T19:16:33.133Z,29.75
2022-11-28T19:19:01.839Z,25.02
2022-11-28T19:21:32.652Z,28.88
2022-11-28T19:24:00.760Z,25.13
2022-11-28T19:26:30.264Z,24.67
2022-11-28T19:28:57.415Z,28.70
2022-11-28T19:31:28.047Z,31.08
2022-11-28T19:34:04.059Z,30.30
2022-11-28T19:36:34.427Z,32.22
2022-11-28T19:39:02.181Z,43.03
2022-11-28T19:41:29.774Z,34.20
2022-11-28T19:43:56.775Z,30.38
2022-11-28T19:46:24.244Z,32.95
2022-11-28T19:48:51.628Z,29.30
2022-11-28T19:51:19.400Z,31.90
2022-11-28T19:53:46.191Z,34.42
2022-11-28T19:56:19.891Z,32.55
2022-11-28T19:58:47.536Z,30.58
2022-11-28T20:01:17.327Z,33.30
2022-11-28T20:03:44.441Z,36.17
2022-11-28T20:06:23.720Z,39.50
2022-11-28T20:08:52.053Z,33.70
2022-11-28T20:11:24.863Z,33.63
2022-11-28T20:14:07.824Z,26.73
2022-11-28T20:16:36.362Z,34.97
2022-11-28T20:19:04.249Z,34.67
2022-11-28T20:21:31.969Z,32.70
2022-11-28T20:24:04.496Z,41.67
2022-11-28T20:26:37.555Z,40.97
2022-11-28T20:29:04.892Z,35.03
2022-11-28T20:31:36.317Z,33.53
2022-11-28T20:34:03.705Z,33.13
2022-11-28T20:36:32.034Z,36.03
2022-11-28T20:38:59.460Z,30.45
2022-11-28T20:41:27.813Z,31.45
2022-11-28T20:43:54.874Z,32.90
2022-11-28T20:46:27.132Z,30.77
2022-11-28T20:48:54.348Z,30.20
2022-11-28T20:51:27.575Z,30.42
2022-11-28T20:53:56.625Z,29.00
2022-11-28T20:56:29.774Z,27.92
2022-11-28T20:59:00.454Z,28.70
2022-11-28T21:01:33.063Z,31.80
2022-11-28T21:04:01.447Z,30.60
2022-11-28T21:06:28.469Z,28.85
2022-11-28T21:08:56.841Z,26.10
2022-11-28T21:11:55.212Z,23.70
2022-11-28T21:14:14.098Z,25.75
2022-11-28T21:16:41.880Z,25.63
2022-11-28T21:19:14.065Z,27.77
2022-11-28T21:21:43.065Z,28.35
2022-11-28T21:24:13.487Z,32.55
2022-11-28T21:26:45.321Z,36.08
2022-11-28T21:29:14.621Z,35.38
2022-11-28T21:31:43.843Z,32.38
2022-11-28T21:34:15.286Z,38.95
2022-11-28T21:36:42.507Z,33.03
2022-11-28T21:39:19.572Z,40.70
2022-11-28T21:41:54.494Z,32.60
2022-11-28T21:44:21.175Z,35.85
2022-11-28T21:46:47.781Z,31.20
2022-11-28T21:49:14.471Z,30.80
2022-11-28T21:51:41.396Z,28.08
2022-11-28T21:54:11.975Z,30.38
2022-11-28T21:56:38.792Z,27.80
2022-11-28T21:59:09.077Z,24.52
2022-11-28T22:01:36.036Z,24.80
2022-11-28T22:04:03.352Z,28.90
2022-11-28T22:06:30.094Z,28.30
2022-11-28T22:08:57.458Z,25.67
2022-11-28T22:11:24.591Z,29.33
2022-11-28T22:13:52.605Z,31.98
2022-11-28T22:16:22.229Z,26.90
2022-11-28T22:18:51.564Z,30.67
2022-11-28T22:24:06.541Z,26.92
2022-11-28T22:26:33.430Z,32.42
2022-11-28T22:29:00.901Z,27.55
2022-11-28T22:31:27.646Z,31.95
2022-11-28T22:33:54.431Z,28.88
2022-11-28T22:36:21.860Z,27.88
2022-11-28T22:38:50.047Z,26.85
2022-11-28T22:41:26.422Z,23.38
2022-11-28T22:43:56.947Z,24.73
2022-11-28T22:46:23.677Z,25.83
2022-11-28T22:48:51.633Z,24.38
2022-11-28T22:51:22.117Z,25.27
2022-11-28T22:53:53.918Z,25.92
2022-11-28T22:56:20.529Z,23.30
2022-11-28T22:58:47.153Z,25.15
2022-11-28T23:01:23.985Z,24.33
2022-11-28T23:03:51.841Z,25.20
2022-11-28T23:06:25.262Z,25.40
2022-11-28T23:08:53.044Z,24.05
2022-11-28T23:11:26.550Z,22.67
2022-11-28T23:13:53.546Z,28.60
2022-11-28T23:16:27.804Z,26.60
2022-11-28T23:18:57.935Z,24.35
2022-11-28T23:21:26.374Z,26.38
2022-11-28T23:23:53.008Z,24.10
2022-11-28T23:26:23.555Z,21.63
2022-11-28T23:28:51.532Z,24.10
2022-11-28T23:31:25.361Z,25.60
2022-11-28T23:33:53.150Z,24.95
2022-11-28T23:36:22.521Z,25.25
2022-11-28T23:38:52.539Z,24.85
2022-11-28T23:41:19.855Z,23.65
2022-11-28T23:43:47.185Z,24.02
2022-11-28T23:46:16.256Z,21.92
2022-11-28T23:48:43.683Z,25.05
2022-11-28T23:51:12.767Z,27.15
2022-11-28T23:53:40.292Z,26.00
2022-11-28T23:56:16.053Z,23.35
2022-11-28T23:58:43.472Z,25.33
